LBSFLBPD

Guest
Details From LBSF - Sofia
To LBPD - Plovdiv
Flight Number -
Tags generated
Created
Modified
Stats Distance 74 nm / 137 km
Max Altitude 8,300 ft / 2,530 m
Waypoints 3
Social Downloads 6
Likes 0
Share VATSIM

Download

Looking for another format? Having issues loading an existing format? Contact us
Advertisement - Login to hide

Notes

Basic altitude profile: - Ascent Rate: 2500ft/min - Ascent Speed: 250kts - Cruise Altitude: 35000ft - Cruise Speed: 420kts - Descent Rate: 1500ft/min - Descent Speed: 250kts

Route

LBSF LARAT LBPD

ID Type Via Altitude Latitude Longitude Leg Dist Tot Dist Heading (true) Name
O LBSF APT - 0 ft / 0 m 42.69713˚ 23.41672˚ - 0 nm - Sofia
LARAT FIX - 8,300 ft / 2,530 m 42.50167˚ 23.87111˚ 23 nm 23 nm 120° / 120° -
O LBPD APT - 0 ft / 0 m 42.06786˚ 24.85081˚ 50 nm 73 nm 121° / 121° Plovdiv

Altitude Profile

Advertisement - Login to hide

LBSF

Details ICAO LBSF (SOF)
Name Sofia
Region Bulgaria
Timezone Europe/Sofia (UTC+3.0)
Stats Elevation 1,741 ft / 531 m (AMSL)
Location 42.697130° 23.416722°
Runways 1
Magnetic Variation 4.980° E

METAR

LBSF 250500Z VRB02KT 0250 R27/0350N FG VV002 12/11 Q1017 NOSIG

Decode

TAF

TAF LBSF 242300Z 2500/2524 VRB04KT 7000 SCT015 TEMPO 2502/2507 BKN005 BECMG 2508/2510 08012KT 9999 SCT050 PROB30 TEMPO 2513/2518 5000 TSRA SCT030CB BKN040

Decode

Departure Runways

ID Width Length Bearing (true) Bearing (mag) Surface Threshold Offset Overrun Length
09 148 ft / 45 m 11,801 ft / 3,597 m 93.99° 89.01° Asphalt 984 ft / 300 m 525 ft / 160 m
27 148 ft / 45 m 11,801 ft / 3,597 m 274.02° 269.04° Asphalt 0 ft / 0 m 525 ft / 160 m

LBPD

Details ICAO LBPD (PDV)
Name Plovdiv
Region Bulgaria
Timezone Europe/Sofia (UTC+3.0)
Stats Elevation 597 ft / 182 m (AMSL)
Location 42.067856° 24.850814°
Runways 1
Magnetic Variation 5.112° E

METAR

LBPD 250500Z AUTO VRB02KT 9999 BKN074/// 17/15 Q1014 NOSIG

Decode

TAF

TAF LBPD 242300Z 2500/2524 VRB04KT 5000 BR SCT015 TEMPO 2502/2506 1200 BR BKN005 BECMG 2506/2508 10012KT 9999 SCT050 PROB30 TEMPO 2510/2518 5000 TSRA SCT030CB BKN040

Decode

Destination Runways

ID Width Length Bearing (true) Bearing (mag) Surface Threshold Offset Overrun Length
12 164 ft / 50 m 8,200 ft / 2,500 m 127.33° 122.22° Asphalt 0 ft / 0 m 197 ft / 60 m
30 164 ft / 50 m 8,200 ft / 2,500 m 307.35° 302.24° Asphalt 0 ft / 0 m 295 ft / 90 m

Approach Navaids

Runway Type Ident Frequency Range Bearing (true) Bearing (mag) Slope Elevation
30 Localiser IPD 109.90 MHz 18 nm / 33 km 307.33° 302.21° - 597 ft / 182 m (AMSL)
30 Glidescope IPD 109.90 MHz 10 nm / 19 km 307.34° 302.23° 3.00° 597 ft / 182 m (AMSL)

Popular Alternatives